createdAt,value
2023-07-24T00:00:31.544Z,83.10
2023-07-24T00:02:58.466Z,83.40
2023-07-24T00:05:25.403Z,83.50
2023-07-24T00:07:53.530Z,83.50
2023-07-24T00:10:20.403Z,83.70
2023-07-24T00:12:47.175Z,84.00
2023-07-24T00:15:13.932Z,84.00
2023-07-24T00:17:40.775Z,84.10
2023-07-24T00:20:08.505Z,84.30
2023-07-24T00:22:35.270Z,84.60
2023-07-24T00:25:03.504Z,84.80
2023-07-24T00:27:30.235Z,85.00
2023-07-24T00:29:56.985Z,85.20
2023-07-24T00:32:23.874Z,85.50
2023-07-24T00:34:50.685Z,85.60
2023-07-24T00:37:17.494Z,85.80
2023-07-24T00:39:44.264Z,86.00
2023-07-24T00:42:12.415Z,86.10
2023-07-24T00:44:39.241Z,86.30
2023-07-24T00:47:06.657Z,86.50
2023-07-24T00:49:33.613Z,86.60
2023-07-24T00:52:00.564Z,86.80
2023-07-24T00:54:31.727Z,86.90
2023-07-24T00:56:58.551Z,87.10
2023-07-24T00:59:26.752Z,87.20
2023-07-24T01:01:53.650Z,87.30
2023-07-24T01:04:20.490Z,87.50
2023-07-24T01:06:47.588Z,87.60
2023-07-24T01:09:14.353Z,87.80
2023-07-24T01:11:46.990Z,87.80
2023-07-24T01:14:20.507Z,88.00
2023-07-24T01:16:50.230Z,88.20
2023-07-24T01:19:32.765Z,88.50
2023-07-24T01:22:09.097Z,88.60
2023-07-24T01:24:44.861Z,88.90
2023-07-24T01:27:21.347Z,89.00
2023-07-24T01:29:48.160Z,89.10
2023-07-24T01:32:14.955Z,89.00
2023-07-24T01:34:41.906Z,89.10
2023-07-24T01:37:09.521Z,89.20
2023-07-24T01:39:36.780Z,89.20
2023-07-24T01:42:03.988Z,89.30
2023-07-24T01:44:32.104Z,89.30
2023-07-24T01:46:58.951Z,89.30
2023-07-24T01:49:29.034Z,89.30
2023-07-24T01:51:55.895Z,89.30
2023-07-24T01:54:22.730Z,89.50
2023-07-24T01:56:49.549Z,89.70
2023-07-24T01:59:16.345Z,90.00
2023-07-24T02:01:44.565Z,90.10
2023-07-24T02:04:11.323Z,90.10
2023-07-24T02:06:38.058Z,90.30
2023-07-24T02:09:05.228Z,90.60
2023-07-24T02:11:32.251Z,90.60
2023-07-24T02:13:59.011Z,90.70
2023-07-24T02:16:25.913Z,90.80
2023-07-24T02:18:54.429Z,90.90
2023-07-24T02:21:21.224Z,91.00
2023-07-24T02:23:48.016Z,91.00
2023-07-24T02:26:14.894Z,91.40
2023-07-24T02:28:41.737Z,91.20
2023-07-24T02:31:08.497Z,91.30
2023-07-24T02:33:35.354Z,91.30
2023-07-24T02:36:03.965Z,91.20
2023-07-24T02:38:30.775Z,91.10
2023-07-24T02:40:58.090Z,91.20
2023-07-24T02:43:24.950Z,91.00
2023-07-24T02:45:51.736Z,90.60
2023-07-24T02:48:18.534Z,90.70
2023-07-24T02:50:45.279Z,90.60
2023-07-24T02:53:13.400Z,90.50
2023-07-24T02:55:43.478Z,90.50
2023-07-24T02:58:12.008Z,90.40
2023-07-24T03:00:38.968Z,90.40
2023-07-24T03:03:05.868Z,90.30
2023-07-24T03:05:34.645Z,90.30
2023-07-24T03:08:01.485Z,90.10
2023-07-24T03:10:29.786Z,90.00
2023-07-24T03:12:56.598Z,90.70
2023-07-24T03:15:23.975Z,99.00
2023-07-24T03:17:50.834Z,99.90
2023-07-24T03:20:19.210Z,99.90
2023-07-24T03:22:46.105Z,99.90
2023-07-24T03:25:13.813Z,99.90
2023-07-24T03:27:42.378Z,99.90
2023-07-24T03:30:09.462Z,99.90
2023-07-24T03:32:37.608Z,99.90
2023-07-24T03:35:05.209Z,99.90
2023-07-24T03:37:32.121Z,99.90
2023-07-24T03:39:58.853Z,99.90
2023-07-24T03:42:26.966Z,99.90
2023-07-24T03:44:55.586Z,99.90
2023-07-24T03:47:22.575Z,99.90
2023-07-24T03:49:49.495Z,99.90
2023-07-24T03:52:16.264Z,99.90
2023-07-24T03:54:43.645Z,99.90
2023-07-24T03:57:10.598Z,99.90
2023-07-24T03:59:37.464Z,99.90
2023-07-24T04:02:07.410Z,99.90
2023-07-24T04:04:36.177Z,99.90
2023-07-24T04:07:03.166Z,99.90
2023-07-24T04:09:29.916Z,99.90
2023-07-24T04:11:56.682Z,99.90
2023-07-24T04:14:23.510Z,99.90
2023-07-24T04:16:50.316Z,99.90
2023-07-24T04:19:18.493Z,99.90
2023-07-24T04:21:45.256Z,99.90
2023-07-24T04:24:12.055Z,99.90
2023-07-24T04:26:38.852Z,99.90
2023-07-24T04:29:05.658Z,99.90
2023-07-24T04:31:32.516Z,99.90
2023-07-24T04:33:59.281Z,99.90
2023-07-24T04:36:27.550Z,99.90
2023-07-24T04:38:54.495Z,99.90
2023-07-24T04:41:21.225Z,99.90
2023-07-24T04:43:48.020Z,99.90
2023-07-24T04:46:14.811Z,99.90
2023-07-24T04:48:41.684Z,99.90
2023-07-24T04:51:08.506Z,99.90
2023-07-24T04:53:36.795Z,99.90
2023-07-24T04:56:03.642Z,99.90
2023-07-24T04:58:30.428Z,99.90
2023-07-24T05:00:57.211Z,99.90
2023-07-24T05:03:24.020Z,99.90
2023-07-24T05:05:55.395Z,99.90
2023-07-24T05:08:22.263Z,99.90
2023-07-24T05:10:55.016Z,99.90
2023-07-24T05:13:21.890Z,99.90
2023-07-24T05:15:48.679Z,99.90
2023-07-24T05:18:15.704Z,99.90
2023-07-24T05:20:45.428Z,99.90
2023-07-24T05:23:12.244Z,99.90
2023-07-24T05:25:39.021Z,99.90
2023-07-24T05:28:07.173Z,99.90
2023-07-24T05:30:34.144Z,99.90
2023-07-24T05:33:01.136Z,99.90
2023-07-24T05:35:27.952Z,99.90
2023-07-24T05:37:54.872Z,99.90
2023-07-24T05:40:21.654Z,99.90
2023-07-24T05:42:48.423Z,99.90
2023-07-24T05:45:16.772Z,99.90
2023-07-24T05:47:43.670Z,99.90
2023-07-24T05:50:11.038Z,99.90
2023-07-24T05:52:37.881Z,99.90
2023-07-24T05:55:05.184Z,99.90
2023-07-24T05:57:31.993Z,99.90
2023-07-24T05:59:58.788Z,99.90
2023-07-24T06:02:26.962Z,99.90
2023-07-24T06:04:53.753Z,99.90
2023-07-24T06:07:20.715Z,99.90
2023-07-24T06:09:47.512Z,99.90
2023-07-24T06:12:14.299Z,99.90
2023-07-24T06:14:41.158Z,99.90
2023-07-24T06:17:08.010Z,99.90
2023-07-24T06:19:36.151Z,99.60
2023-07-24T06:22:03.019Z,98.20
2023-07-24T06:24:29.873Z,96.70
2023-07-24T06:26:56.735Z,96.00
2023-07-24T06:29:23.550Z,96.80
2023-07-24T06:31:50.443Z,96.80
2023-07-24T06:34:17.344Z,96.70
2023-07-24T06:36:45.567Z,95.90
2023-07-24T06:39:12.349Z,95.30
2023-07-24T06:41:39.294Z,94.10
2023-07-24T06:44:06.127Z,92.90
2023-07-24T06:46:33.116Z,90.50
2023-07-24T06:48:59.924Z,87.50
2023-07-24T06:51:26.734Z,86.50
2023-07-24T06:53:54.921Z,86.00
2023-07-24T06:56:21.969Z,84.80
2023-07-24T06:58:48.952Z,84.70
2023-07-24T07:01:15.773Z,82.40
2023-07-24T07:03:42.618Z,82.20
2023-07-24T07:06:09.685Z,82.80
2023-07-24T07:08:36.704Z,81.00
2023-07-24T07:11:04.875Z,78.10
2023-07-24T07:13:31.674Z,76.60
2023-07-24T07:15:58.498Z,75.40
2023-07-24T07:18:25.310Z,75.50
2023-07-24T07:20:53.952Z,69.60
2023-07-24T07:23:21.534Z,69.00
2023-07-24T07:25:48.417Z,67.90
2023-07-24T07:28:17.164Z,69.10
2023-07-24T07:30:46.086Z,69.00
2023-07-24T07:33:13.148Z,71.40
2023-07-24T07:35:39.984Z,73.70
2023-07-24T07:38:06.764Z,74.70
2023-07-24T07:40:33.555Z,75.70
2023-07-24T07:43:00.398Z,78.80
2023-07-24T07:45:28.595Z,91.10
2023-07-24T07:47:55.413Z,95.90
2023-07-24T07:50:22.241Z,99.90
2023-07-24T07:52:51.157Z,99.90
2023-07-24T07:55:18.152Z,99.90
2023-07-24T07:57:44.964Z,99.90
2023-07-24T08:00:12.746Z,99.90
2023-07-24T08:02:41.026Z,99.90
2023-07-24T08:05:13.644Z,99.90
2023-07-24T08:07:44.866Z,99.90
2023-07-24T08:10:11.878Z,99.90
2023-07-24T08:12:38.658Z,99.90
2023-07-24T08:15:06.460Z,99.90
2023-07-24T08:17:33.282Z,99.90
2023-07-24T08:20:01.567Z,99.90
2023-07-24T08:22:28.392Z,99.90
2023-07-24T08:24:57.267Z,99.90
2023-07-24T08:27:24.267Z,99.90
2023-07-24T08:29:52.156Z,99.90
2023-07-24T08:32:19.009Z,99.90
2023-07-24T08:34:45.881Z,99.90
2023-07-24T08:37:14.057Z,99.90
2023-07-24T08:39:41.022Z,99.90
2023-07-24T08:42:11.642Z,99.90
2023-07-24T08:44:39.344Z,99.90
2023-07-24T08:47:10.754Z,99.90
2023-07-24T08:49:39.272Z,99.80
2023-07-24T08:52:07.249Z,99.10
2023-07-24T08:54:36.910Z,98.10
2023-07-24T08:57:05.286Z,96.30
2023-07-24T08:59:33.159Z,94.80
2023-07-24T09:01:59.996Z,94.00
2023-07-24T09:04:26.957Z,93.50
2023-07-24T09:06:54.720Z,92.40
2023-07-24T09:09:21.516Z,93.20
2023-07-24T09:11:51.355Z,93.30
2023-07-24T09:14:22.490Z,92.10
2023-07-24T09:16:49.547Z,92.70
2023-07-24T09:19:26.713Z,93.10
2023-07-24T09:21:53.789Z,92.80
2023-07-24T09:24:20.591Z,92.10
2023-07-24T09:26:58.628Z,91.90
2023-07-24T09:29:32.188Z,91.40
2023-07-24T09:31:59.856Z,90.60
2023-07-24T09:34:26.775Z,87.70
2023-07-24T09:36:53.620Z,83.90
2023-07-24T09:39:24.689Z,80.20
2023-07-24T09:41:53.028Z,78.80
2023-07-24T09:44:20.076Z,75.30
2023-07-24T09:47:02.833Z,73.10
2023-07-24T09:49:33.883Z,71.50
2023-07-24T09:52:05.093Z,70.20
2023-07-24T09:54:38.390Z,69.20
2023-07-24T09:57:19.757Z,66.90
2023-07-24T09:59:49.222Z,64.90
2023-07-24T10:02:16.564Z,60.50
2023-07-24T10:04:44.267Z,59.00
2023-07-24T10:07:11.614Z,59.30
2023-07-24T10:09:39.317Z,60.90
2023-07-24T10:12:09.416Z,60.40
2023-07-24T10:14:37.729Z,59.70
2023-07-24T10:17:05.060Z,58.40
2023-07-24T10:19:37.448Z,57.60
2023-07-24T10:22:04.437Z,55.60
2023-07-24T10:24:40.892Z,55.60
2023-07-24T10:27:12.969Z,55.30
2023-07-24T10:29:40.176Z,54.70
2023-07-24T10:32:18.461Z,53.40
2023-07-24T10:34:45.370Z,52.90
2023-07-24T10:37:12.171Z,52.60
2023-07-24T10:39:40.062Z,51.60
2023-07-24T10:42:08.624Z,49.50
2023-07-24T10:44:37.288Z,48.60
2023-07-24T10:47:04.671Z,48.40
2023-07-24T10:49:31.464Z,49.50
2023-07-24T10:51:58.786Z,49.50
2023-07-24T10:54:25.622Z,48.30
2023-07-24T10:56:59.105Z,48.30
2023-07-24T10:59:38.602Z,48.70
2023-07-24T11:02:05.496Z,49.50
2023-07-24T11:04:38.309Z,49.40
2023-07-24T11:07:05.231Z,48.80
2023-07-24T11:09:39.330Z,48.60
2023-07-24T11:12:13.921Z,48.00
2023-07-24T11:14:59.855Z,47.90
2023-07-24T11:17:35.454Z,47.40
2023-07-24T11:20:12.588Z,47.20
2023-07-24T11:22:40.942Z,47.50
2023-07-24T11:25:08.716Z,47.50
2023-07-24T11:27:41.297Z,47.30
2023-07-24T11:30:10.634Z,46.90
2023-07-24T11:32:40.118Z,46.50
2023-07-24T11:35:08.406Z,46.80
2023-07-24T11:37:36.042Z,46.50
2023-07-24T11:40:04.860Z,46.20
2023-07-24T11:42:32.016Z,46.00
2023-07-24T11:45:02.335Z,45.40
2023-07-24T11:47:30.609Z,45.60
2023-07-24T11:49:58.833Z,45.40
2023-07-24T11:52:25.779Z,45.80
2023-07-24T11:54:58.950Z,45.70
2023-07-24T11:57:25.791Z,45.90
2023-07-24T11:59:52.557Z,46.00
2023-07-24T12:02:20.066Z,46.70
2023-07-24T12:04:48.245Z,47.60
2023-07-24T12:07:15.018Z,49.10
2023-07-24T12:09:41.761Z,50.60
2023-07-24T12:12:10.185Z,51.60
2023-07-24T12:14:37.011Z,51.60
2023-07-24T12:17:04.394Z,51.10
2023-07-24T12:19:31.296Z,52.00
2023-07-24T12:21:59.367Z,54.00
2023-07-24T12:24:26.223Z,54.20
2023-07-24T12:26:53.164Z,55.90
2023-07-24T12:29:20.008Z,58.10
2023-07-24T12:31:46.819Z,61.40
2023-07-24T12:34:13.658Z,64.00
2023-07-24T12:36:40.482Z,74.90
2023-07-24T12:39:08.612Z,79.60
2023-07-24T12:41:35.408Z,83.50
2023-07-24T12:44:02.250Z,83.00
2023-07-24T12:46:29.097Z,81.00
2023-07-24T12:48:55.871Z,80.90
2023-07-24T12:51:22.659Z,79.10
2023-07-24T12:53:56.722Z,77.80
2023-07-24T12:56:27.443Z,77.70
2023-07-24T12:58:54.341Z,78.10
2023-07-24T13:01:21.142Z,78.60
2023-07-24T13:03:48.127Z,78.60
2023-07-24T13:06:14.980Z,78.80
2023-07-24T13:08:41.807Z,80.80
2023-07-24T13:11:08.583Z,83.20
2023-07-24T13:13:36.782Z,85.60
2023-07-24T13:16:03.930Z,88.00
2023-07-24T13:18:30.884Z,89.30
2023-07-24T13:20:58.070Z,90.40
2023-07-24T13:23:25.052Z,91.10
2023-07-24T13:25:53.583Z,91.50
2023-07-24T13:28:20.547Z,92.30
2023-07-24T13:30:48.681Z,93.00
2023-07-24T13:33:15.534Z,93.80
2023-07-24T13:35:42.284Z,95.00
2023-07-24T13:38:09.377Z,95.10
2023-07-24T13:40:36.830Z,94.70
2023-07-24T13:43:03.677Z,93.10
2023-07-24T13:45:30.478Z,91.60
2023-07-24T13:47:59.297Z,85.80
2023-07-24T13:50:26.269Z,84.90
2023-07-24T13:52:53.145Z,81.50
2023-07-24T13:55:20.030Z,78.90
2023-07-24T13:57:46.836Z,79.40
2023-07-24T14:00:14.218Z,77.90
2023-07-24T14:02:41.072Z,74.10
2023-07-24T14:05:12.272Z,74.00
2023-07-24T14:07:39.095Z,71.80
2023-07-24T14:10:07.023Z,70.90
2023-07-24T14:12:33.837Z,68.60
2023-07-24T14:15:00.641Z,62.60
2023-07-24T14:17:27.763Z,61.80
2023-07-24T14:19:54.651Z,60.70
2023-07-24T14:22:22.899Z,61.30
2023-07-24T14:24:49.698Z,60.60
2023-07-24T14:27:16.527Z,60.30
2023-07-24T14:29:43.304Z,57.90
2023-07-24T14:32:10.218Z,55.80
2023-07-24T14:34:37.141Z,55.90
2023-07-24T14:37:04.543Z,53.10
2023-07-24T14:39:32.820Z,52.90
2023-07-24T14:41:59.673Z,50.70
2023-07-24T14:44:27.763Z,50.30
2023-07-24T14:46:54.602Z,49.00
2023-07-24T14:49:21.392Z,46.60
2023-07-24T14:51:48.195Z,44.80
2023-07-24T14:54:14.993Z,42.50
2023-07-24T14:56:53.943Z,41.00
2023-07-24T14:59:24.081Z,39.00
2023-07-24T15:01:51.065Z,36.70
2023-07-24T15:04:17.880Z,35.30
2023-07-24T15:06:44.753Z,34.50
2023-07-24T15:09:11.612Z,34.60
2023-07-24T15:11:38.495Z,34.60
2023-07-24T15:14:06.727Z,34.20
2023-07-24T15:16:33.509Z,33.90
2023-07-24T15:19:01.016Z,31.90
2023-07-24T15:21:28.183Z,31.30
2023-07-24T15:23:55.604Z,31.50
2023-07-24T15:26:22.560Z,31.10
2023-07-24T15:28:49.434Z,30.70
2023-07-24T15:31:17.684Z,30.30
2023-07-24T15:33:44.530Z,30.00
2023-07-24T15:36:11.368Z,29.50
2023-07-24T15:38:38.158Z,30.40
2023-07-24T15:41:05.037Z,31.60
2023-07-24T15:43:31.855Z,32.90
2023-07-24T15:45:58.759Z,34.70
2023-07-24T15:48:27.141Z,36.80
2023-07-24T15:50:54.035Z,39.00
2023-07-24T15:53:20.898Z,42.10
2023-07-24T15:55:47.678Z,45.00
2023-07-24T15:58:14.475Z,47.60
2023-07-24T16:00:41.314Z,49.00
2023-07-24T16:03:08.323Z,51.20
2023-07-24T16:05:36.742Z,52.60
2023-07-24T16:08:03.740Z,54.60
2023-07-24T16:10:30.653Z,56.00
2023-07-24T16:12:57.442Z,58.10
2023-07-24T16:20:23.977Z,59.20
2023-07-24T16:22:52.098Z,59.10
2023-07-24T16:25:19.118Z,60.20
2023-07-24T16:27:45.876Z,60.30
2023-07-24T16:30:12.940Z,61.70
2023-07-24T16:35:15.444Z,65.00
2023-07-24T16:37:42.324Z,67.30
2023-07-24T16:40:12.057Z,68.70
2023-07-24T16:42:38.820Z,71.00
2023-07-24T16:45:10.492Z,72.30
2023-07-24T16:47:39.281Z,73.30
2023-07-24T16:50:07.618Z,74.60
2023-07-24T16:52:35.056Z,74.30
2023-07-24T16:55:01.982Z,75.80
2023-07-24T16:57:30.130Z,78.30
2023-07-24T16:59:57.032Z,77.70
2023-07-24T17:02:23.889Z,79.40
2023-07-24T17:04:50.692Z,82.50
2023-07-24T17:07:17.474Z,85.80
2023-07-24T17:09:44.289Z,86.50
2023-07-24T17:12:11.254Z,87.30
2023-07-24T17:14:39.477Z,88.50
2023-07-24T17:17:06.350Z,90.90
2023-07-24T17:19:33.127Z,91.10
2023-07-24T17:21:59.961Z,91.70
2023-07-24T17:24:26.793Z,91.70
2023-07-24T17:26:53.635Z,91.70
2023-07-24T17:29:20.474Z,92.10
2023-07-24T17:31:48.666Z,92.30
2023-07-24T17:34:15.458Z,92.70
2023-07-24T17:36:42.266Z,93.30
2023-07-24T17:39:09.058Z,93.70
2023-07-24T17:41:35.835Z,95.00
2023-07-24T17:44:02.682Z,96.40
2023-07-24T17:46:29.511Z,97.10
2023-07-24T17:48:57.659Z,97.80
2023-07-24T17:51:24.960Z,98.20
2023-07-24T17:53:51.769Z,98.60
2023-07-24T17:56:18.638Z,99.50
2023-07-24T17:58:45.415Z,99.90
2023-07-24T18:01:12.270Z,99.90
2023-07-24T18:03:39.101Z,99.90
2023-07-24T18:06:07.321Z,99.90
2023-07-24T18:08:34.095Z,99.90
2023-07-24T18:11:01.095Z,99.90
2023-07-24T18:13:28.027Z,99.90
2023-07-24T18:15:55.015Z,99.90
2023-07-24T18:18:22.199Z,99.90
2023-07-24T18:20:49.174Z,99.90
2023-07-24T18:23:17.332Z,99.90
2023-07-24T18:25:44.181Z,99.90
2023-07-24T18:28:11.009Z,99.90
2023-07-24T18:30:37.883Z,99.90
2023-07-24T18:33:04.739Z,99.90
2023-07-24T18:35:31.545Z,99.90
2023-07-24T18:37:58.342Z,99.90
2023-07-24T18:40:26.550Z,99.90
2023-07-24T18:42:53.530Z,99.90
2023-07-24T18:45:20.588Z,99.90
2023-07-24T18:47:47.506Z,99.90
2023-07-24T18:50:14.290Z,99.90
2023-07-24T18:52:41.131Z,99.90
2023-07-24T18:55:08.728Z,99.90
2023-07-24T18:57:36.878Z,99.90
2023-07-24T19:00:04.270Z,99.90
2023-07-24T19:02:31.134Z,99.90
2023-07-24T19:04:57.936Z,99.90
2023-07-24T19:07:24.814Z,99.90
2023-07-24T19:09:51.613Z,99.90
2023-07-24T19:12:18.580Z,99.90
2023-07-24T19:14:46.998Z,99.90
2023-07-24T19:17:13.768Z,99.90
2023-07-24T19:19:40.705Z,99.90
2023-07-24T19:22:07.591Z,99.90
2023-07-24T19:24:34.502Z,99.90
2023-07-24T19:27:01.316Z,99.90
2023-07-24T19:29:28.193Z,99.90
2023-07-24T19:31:56.420Z,99.90
2023-07-24T19:34:23.244Z,99.90
2023-07-24T19:36:50.053Z,99.90
2023-07-24T19:39:16.834Z,99.90
2023-07-24T19:41:43.678Z,99.90
2023-07-24T19:44:10.474Z,99.90
2023-07-24T19:46:37.250Z,99.90
2023-07-24T19:49:05.482Z,99.90
2023-07-24T19:51:32.435Z,99.90
2023-07-24T19:53:59.537Z,99.90
2023-07-24T19:56:26.335Z,99.90
2023-07-24T19:58:53.163Z,99.90
2023-07-24T20:01:19.945Z,99.90
2023-07-24T20:03:46.844Z,99.90
2023-07-24T20:06:15.048Z,99.90
2023-07-24T20:08:41.932Z,99.90
2023-07-24T20:11:08.730Z,99.90
2023-07-24T20:13:36.126Z,99.90
2023-07-24T20:16:03.171Z,99.90
2023-07-24T20:18:30.211Z,99.90
2023-07-24T20:20:57.019Z,99.90
2023-07-24T20:23:25.266Z,99.90
2023-07-24T20:25:52.208Z,99.90
2023-07-24T20:28:19.575Z,99.90
2023-07-24T20:30:47.050Z,99.90
2023-07-24T20:33:13.927Z,99.90
2023-07-24T20:35:41.098Z,99.90
2023-07-24T20:38:08.033Z,99.90
2023-07-24T20:40:36.277Z,99.90
2023-07-24T20:43:03.704Z,99.90
2023-07-24T20:45:30.698Z,99.90
2023-07-24T20:47:57.709Z,99.90
2023-07-24T20:50:24.689Z,99.90
2023-07-24T20:52:51.485Z,99.90
2023-07-24T20:55:18.431Z,99.90
2023-07-24T20:57:46.508Z,99.90
2023-07-24T21:00:14.431Z,99.90
2023-07-24T21:02:41.222Z,99.90
2023-07-24T21:05:08.831Z,99.90
2023-07-24T21:07:35.624Z,99.90
2023-07-24T21:10:02.437Z,99.90
2023-07-24T21:12:29.220Z,99.90
2023-07-24T21:14:57.401Z,99.90
2023-07-24T21:17:24.177Z,99.90
2023-07-24T21:19:51.065Z,99.90
2023-07-24T21:22:17.978Z,99.90
2023-07-24T21:24:44.990Z,99.90
2023-07-24T21:27:11.816Z,99.90
2023-07-24T21:29:38.658Z,99.90
2023-07-24T21:32:07.719Z,99.90
2023-07-24T21:34:34.603Z,99.90
2023-07-24T21:37:01.410Z,99.90
2023-07-24T21:39:28.299Z,99.90
2023-07-24T21:41:55.094Z,99.90
2023-07-24T21:44:21.884Z,99.90
2023-07-24T21:46:48.679Z,99.90
2023-07-24T21:49:16.852Z,99.90
2023-07-24T21:51:43.604Z,99.90
2023-07-24T21:54:10.410Z,99.90
2023-07-24T21:56:37.741Z,99.90
2023-07-24T21:59:04.920Z,99.90
2023-07-24T22:01:31.865Z,99.90
2023-07-24T22:03:58.809Z,99.90
2023-07-24T22:06:27.062Z,99.90
2023-07-24T22:08:53.899Z,99.90
2023-07-24T22:11:20.735Z,99.90
2023-07-24T22:13:47.482Z,99.90
2023-07-24T22:16:14.448Z,99.90
2023-07-24T22:18:41.259Z,99.90
2023-07-24T22:21:08.071Z,99.90
2023-07-24T22:23:36.171Z,99.90
2023-07-24T22:26:03.103Z,99.90
2023-07-24T22:28:29.976Z,99.90
2023-07-24T22:30:56.821Z,99.90
2023-07-24T22:33:23.825Z,99.90
2023-07-24T22:35:57.818Z,99.90
2023-07-24T22:38:24.575Z,99.90
2023-07-24T22:40:52.838Z,99.90
2023-07-24T22:43:19.766Z,99.90
2023-07-24T22:45:46.611Z,99.90
2023-07-24T22:48:13.573Z,99.90
2023-07-24T22:50:40.419Z,99.90
2023-07-24T22:53:07.275Z,99.90
2023-07-24T22:55:34.097Z,99.90
2023-07-24T22:58:02.270Z,99.90
2023-07-24T23:00:29.052Z,99.90
2023-07-24T23:02:55.887Z,99.90
2023-07-24T23:05:22.687Z,99.90
2023-07-24T23:07:49.442Z,99.90
2023-07-24T23:10:16.368Z,99.90
2023-07-24T23:12:43.143Z,99.90
2023-07-24T23:15:11.277Z,99.90
2023-07-24T23:17:38.094Z,99.90
2023-07-24T23:20:06.035Z,99.90
2023-07-24T23:22:32.815Z,99.90
2023-07-24T23:24:59.556Z,99.90
2023-07-24T23:27:26.404Z,99.90
2023-07-24T23:29:53.199Z,99.90
2023-07-24T23:32:21.420Z,99.90
2023-07-24T23:34:48.208Z,99.90
2023-07-24T23:37:14.991Z,99.90
2023-07-24T23:39:41.926Z,99.90
2023-07-24T23:42:08.736Z,99.90
2023-07-24T23:44:35.543Z,99.90
2023-07-24T23:47:02.297Z,99.90
2023-07-24T23:49:30.476Z,99.90
2023-07-24T23:51:57.296Z,99.90
2023-07-24T23:54:24.044Z,99.90
2023-07-24T23:56:50.884Z,99.90
2023-07-24T23:59:17.700Z,99.90
